Time;durP1;ratioP1;P1;durP2;ratioP2;P2;SDS_P1;SDS_P2;PMS_P1;PMS_P2;Temp;Humidity;BMP_temperature;BMP_pressure;BME280_temperature;BME280_humidity;BME280_pressure;Samples;Min_cycle;Max_cycle;Signal;HPM_P1;HPM_P2
2022/04/04 00:02:14;;;;;;;2.17;1.98;;;4.00;99.90;;;;;;5018753;28;20632;-72
2022/04/04 00:04:40;;;;;;;3.85;2.08;;;4.00;99.90;;;;;;5014809;28;20063;-72
2022/04/04 00:07:06;;;;;;;2.42;1.77;;;4.00;99.90;;;;;;5015413;28;20039;-71
2022/04/04 00:09:32;;;;;;;3.05;2.35;;;4.10;99.90;;;;;;4996106;28;20575;-72
2022/04/04 00:11:57;;;;;;;4.57;1.77;;;4.10;99.90;;;;;;4996951;28;20073;-72
2022/04/04 00:14:23;;;;;;;3.90;2.17;;;4.00;99.90;;;;;;5015099;28;20107;-72
2022/04/04 00:16:49;;;;;;;3.05;2.17;;;4.00;99.90;;;;;;5014632;28;20056;-72
2022/04/04 00:19:15;;;;;;;3.70;2.20;;;4.00;99.90;;;;;;5015576;28;20592;-72
2022/04/04 00:21:41;;;;;;;2.80;2.03;;;4.00;99.90;;;;;;4997755;28;20049;-71
2022/04/04 00:24:07;;;;;;;2.30;2.10;;;4.00;99.90;;;;;;5014700;28;20079;-72
2022/04/04 00:26:33;;;;;;;3.05;2.30;;;4.00;99.90;;;;;;4998285;28;20156;-72
2022/04/04 00:28:58;;;;;;;4.65;2.47;;;4.00;99.90;;;;;;5015822;28;20041;-72
2022/04/04 00:31:24;;;;;;;3.20;2.75;;;4.00;99.90;;;;;;5014868;28;20560;-71
2022/04/04 00:33:49;;;;;;;5.55;2.92;;;3.90;99.90;;;;;;5017191;28;20133;-72
2022/04/04 00:36:16;;;;;;;8.85;2.28;;;4.00;99.90;;;;;;5017642;28;20042;-72
2022/04/04 00:38:41;;;;;;;5.88;2.53;;;4.00;99.90;;;;;;5016572;28;20099;-72
2022/04/04 00:41:13;;;;;;;3.25;2.90;;;4.00;99.90;;;;;;5016229;28;20037;-72
2022/04/04 00:43:39;;;;;;;3.95;2.80;;;4.00;99.90;;;;;;5016424;28;20053;-72
2022/04/04 00:46:05;;;;;;;3.60;2.58;;;4.00;99.90;;;;;;5015859;28;20732;-72
2022/04/04 00:48:31;;;;;;;4.70;2.90;;;4.00;99.90;;;;;;5016413;28;20045;-72
2022/04/04 00:50:57;;;;;;;6.15;2.58;;;4.10;99.90;;;;;;5017634;28;20619;-72
2022/04/04 00:53:24;;;;;;;3.30;2.40;;;4.10;99.90;;;;;;4998329;28;20049;-72
2022/04/04 00:55:49;;;;;;;4.10;2.80;;;4.10;99.90;;;;;;4999508;28;20064;-72
2022/04/04 00:58:19;;;;;;;5.85;2.97;;;4.10;99.90;;;;;;5020929;28;20044;-72
2022/04/04 01:00:47;;;;;;;7.03;3.05;;;4.10;99.90;;;;;;5036133;28;20128;-72
2022/04/04 01:03:14;;;;;;;6.25;3.05;;;4.10;99.90;;;;;;5037191;28;20099;-72
2022/04/04 01:05:40;;;;;;;5.38;2.83;;;4.10;99.90;;;;;;5002407;28;20061;-72
2022/04/04 01:08:05;;;;;;;3.72;3.30;;;4.10;99.90;;;;;;4997923;28;20054;-72
2022/04/04 01:10:31;;;;;;;5.05;3.38;;;4.10;99.90;;;;;;4963704;28;1014975;-72
2022/04/04 01:12:57;;;;;;;6.10;2.95;;;4.10;99.90;;;;;;4998034;28;20308;-72
2022/04/04 01:15:25;;;;;;;5.70;3.53;;;4.10;99.90;;;;;;4998717;28;20173;-72
2022/04/04 01:17:51;;;;;;;6.43;3.90;;;4.10;99.90;;;;;;4981305;28;20544;-72
2022/04/04 01:20:17;;;;;;;5.75;3.53;;;4.10;99.90;;;;;;4998042;28;20128;-72
2022/04/04 01:22:47;;;;;;;6.82;3.83;;;4.10;99.90;;;;;;5003946;28;20170;-72
2022/04/04 01:25:13;;;;;;;5.85;4.05;;;4.10;99.90;;;;;;4980999;28;20064;-72
2022/04/04 01:27:39;;;;;;;4.53;4.00;;;4.10;99.90;;;;;;4997791;28;20050;-72
2022/04/04 01:30:07;;;;;;;5.40;4.10;;;4.20;99.90;;;;;;4999654;28;20041;-72
2022/04/04 01:32:34;;;;;;;5.30;4.10;;;4.20;99.90;;;;;;5017610;28;20053;-72
2022/04/04 01:35:00;;;;;;;4.80;3.85;;;5.30;99.90;;;;;;5017711;28;20041;-72
2022/04/04 01:37:26;;;;;;;7.78;4.05;;;4.20;99.90;;;;;;5018270;28;20552;-70
2022/04/04 01:39:51;;;;;;;5.88;4.13;;;4.30;99.90;;;;;;5018041;28;20053;-70
2022/04/04 01:42:17;;;;;;;8.48;5.00;;;4.30;99.90;;;;;;5017521;28;20811;-70
2022/04/04 01:44:42;;;;;;;12.52;4.07;;;4.30;99.90;;;;;;4999970;28;20580;-70
2022/04/04 01:47:08;;;;;;;7.50;4.80;;;4.30;99.90;;;;;;5018099;28;20064;-70
2022/04/04 01:49:33;;;;;;;8.43;5.18;;;4.40;99.90;;;;;;5017924;28;20049;-70
2022/04/04 01:51:59;;;;;;;6.63;4.90;;;4.40;99.90;;;;;;5018307;28;20453;-72
2022/04/04 01:54:25;;;;;;;8.75;5.70;;;4.40;99.90;;;;;;5019053;28;20984;-71
2022/04/04 01:56:50;;;;;;;7.50;5.53;;;3.90;99.90;;;;;;5017551;28;20045;-71
2022/04/04 01:59:16;;;;;;;6.63;5.07;;;4.40;99.90;;;;;;5013682;28;20057;-71
2022/04/04 02:01:42;;;;;;;9.43;5.68;;;4.40;99.90;;;;;;5038192;28;20061;-71
2022/04/04 02:04:11;;;;;;;8.32;5.70;;;4.40;99.90;;;;;;5037555;28;20068;-71
2022/04/04 02:06:37;;;;;;;8.57;5.55;;;4.40;99.90;;;;;;5038324;28;20046;-71
2022/04/04 02:09:02;;;;;;;8.90;6.25;;;4.50;99.90;;;;;;5034174;28;20057;-71
2022/04/04 02:11:28;;;;;;;10.98;7.30;;;4.40;99.90;;;;;;5017497;28;20909;-71
2022/04/04 02:13:54;;;;;;;8.38;6.03;;;4.50;99.90;;;;;;5000418;28;20444;-71
2022/04/04 02:16:20;;;;;;;7.90;5.72;;;4.50;99.90;;;;;;5017477;28;20780;-71
2022/04/04 02:18:46;;;;;;;12.25;7.35;;;4.50;99.90;;;;;;5017837;28;20034;-71
2022/04/04 02:21:12;;;;;;;9.23;6.95;;;4.50;99.90;;;;;;5012829;28;20500;-71
2022/04/04 02:23:37;;;;;;;7.35;6.15;;;4.50;99.90;;;;;;5022098;28;20043;-71
2022/04/04 02:26:04;;;;;;;9.30;6.75;;;4.50;99.90;;;;;;4999559;28;20045;-71
2022/04/04 02:28:30;;;;;;;9.80;7.10;;;4.50;99.90;;;;;;4998278;28;20053;-71
2022/04/04 02:30:56;;;;;;;9.48;7.00;;;4.50;99.90;;;;;;4989754;28;20482;-72
2022/04/04 02:33:23;;;;;;;10.88;7.72;;;4.60;99.90;;;;;;5017488;28;20147;-71
2022/04/04 02:35:50;;;;;;;9.43;6.45;;;4.60;99.90;;;;;;5000434;28;20058;-71
2022/04/04 02:38:18;;;;;;;11.15;7.97;;;4.60;99.90;;;;;;5004775;28;20168;-71
2022/04/04 02:40:44;;;;;;;8.50;6.72;;;4.60;99.90;;;;;;4997862;28;20780;-71
2022/04/04 02:43:09;;;;;;;8.68;7.15;;;4.60;99.90;;;;;;4997330;28;20144;-71
2022/04/04 02:45:35;;;;;;;11.73;7.22;;;4.70;99.90;;;;;;4997134;28;20777;-71
2022/04/04 02:48:02;;;;;;;8.63;7.68;;;4.70;99.90;;;;;;5009013;28;20108;-71
2022/04/04 02:50:28;;;;;;;9.02;7.30;;;4.70;99.90;;;;;;5017412;28;20049;-71
2022/04/04 02:52:53;;;;;;;9.25;7.43;;;4.70;99.90;;;;;;5016948;28;20123;-71
2022/04/04 02:58:04;;;;;;;9.00;7.95;;;4.70;99.90;;;;;;5018312;28;20143;-71
2022/04/04 03:00:30;;;;;;;15.38;8.55;;;4.70;99.90;;;;;;4997365;28;20156;-72
2022/04/04 03:02:57;;;;;;;15.07;7.43;;;4.70;99.90;;;;;;4980645;28;20093;-71
2022/04/04 03:05:23;;;;;;;8.50;7.07;;;4.80;99.90;;;;;;4998061;28;20046;-71
2022/04/04 03:07:50;;;;;;;9.75;6.93;;;4.80;99.90;;;;;;4980491;28;20744;-71
2022/04/04 03:10:16;;;;;;;14.43;7.60;;;4.80;99.90;;;;;;4980558;28;20917;-71
2022/04/04 03:12:43;;;;;;;10.60;7.35;;;4.80;99.90;;;;;;4979985;28;20054;-71
2022/04/04 03:15:11;;;;;;;11.32;7.05;;;4.90;99.90;;;;;;4980076;28;20493;-71
2022/04/04 03:17:39;;;;;;;11.55;6.88;;;4.90;99.90;;;;;;4998127;28;20054;-71
2022/04/04 03:20:09;;;;;;;11.70;6.72;;;5.00;99.90;;;;;;4997578;28;20163;-71
2022/04/04 03:22:36;;;;;;;14.02;9.32;;;5.00;99.90;;;;;;4981199;28;20647;-71
2022/04/04 03:25:02;;;;;;;12.63;8.15;;;5.00;99.90;;;;;;4998132;28;20073;-71
2022/04/04 03:27:27;;;;;;;10.80;6.93;;;5.10;99.90;;;;;;4997157;28;20136;-71
2022/04/04 03:29:53;;;;;;;11.48;7.88;;;5.10;99.90;;;;;;5030460;28;20059;-71
2022/04/04 03:32:18;;;;;;;14.20;8.57;;;5.10;99.90;;;;;;4991049;28;20049;-71
2022/04/04 03:34:44;;;;;;;11.75;7.55;;;5.10;99.90;;;;;;5017088;28;20053;-71
2022/04/04 03:37:11;;;;;;;14.40;8.75;;;5.20;99.90;;;;;;5016488;28;20072;-71
2022/04/04 03:39:36;;;;;;;11.57;6.88;;;5.20;99.90;;;;;;5016095;28;20742;-71
2022/04/04 03:42:02;;;;;;;17.25;8.32;;;5.20;99.90;;;;;;5015860;28;20045;-71
2022/04/04 03:44:27;;;;;;;13.05;8.40;;;5.30;99.90;;;;;;4999325;28;20049;-71
2022/04/04 03:46:53;;;;;;;11.20;7.70;;;5.30;99.90;;;;;;5017860;28;20052;-71
2022/04/04 03:49:19;;;;;;;13.43;8.68;;;5.30;99.90;;;;;;5016982;28;20559;-71
2022/04/04 03:51:44;;;;;;;12.38;8.10;;;5.30;99.90;;;;;;5017543;28;20060;-71
2022/04/04 03:54:10;;;;;;;13.25;7.75;;;5.40;99.90;;;;;;5017332;28;20157;-71
2022/04/04 03:56:35;;;;;;;14.15;9.25;;;5.40;99.90;;;;;;5017074;28;20576;-72
2022/04/04 03:59:01;;;;;;;11.82;7.95;;;5.50;99.90;;;;;;5017866;28;20076;-70
2022/04/04 04:01:28;;;;;;;12.95;7.75;;;5.50;99.90;;;;;;4999665;28;20451;-71
2022/04/04 04:03:54;;;;;;;13.43;8.85;;;5.50;99.90;;;;;;5000168;28;20061;-71
2022/04/04 04:06:20;;;;;;;13.82;9.10;;;5.50;99.90;;;;;;5017966;28;20374;-71
2022/04/04 04:08:46;;;;;;;17.02;7.97;;;5.50;99.90;;;;;;5016742;28;20046;-71
2022/04/04 04:11:14;;;;;;;14.43;10.32;;;5.50;99.90;;;;;;5017102;28;20915;-72
2022/04/04 04:13:41;;;;;;;11.80;7.95;;;5.50;99.90;;;;;;5017097;28;20045;-71
2022/04/04 04:16:09;;;;;;;15.45;9.30;;;5.50;99.90;;;;;;5016608;28;20057;-71
2022/04/04 04:18:39;;;;;;;12.63;8.43;;;5.50;99.90;;;;;;5016874;28;20049;-70
2022/04/04 04:21:07;;;;;;;11.32;8.38;;;5.50;99.90;;;;;;5016884;28;20053;-71
2022/04/04 04:23:33;;;;;;;18.63;9.40;;;5.50;99.90;;;;;;4999604;28;20099;-71
2022/04/04 04:25:58;;;;;;;14.88;8.85;;;5.50;99.90;;;;;;5017429;28;20099;-71
2022/04/04 04:28:24;;;;;;;17.20;8.50;;;5.50;99.90;;;;;;5023116;28;20045;-70
2022/04/04 04:30:50;;;;;;;15.27;9.23;;;5.50;99.90;;;;;;5017585;28;20060;-70
2022/04/04 04:33:16;;;;;;;11.52;7.82;;;5.50;99.90;;;;;;5015672;28;20050;-69
2022/04/04 04:35:41;;;;;;;11.95;8.30;;;5.50;99.90;;;;;;5017465;28;20049;-69
2022/04/04 04:38:07;;;;;;;15.77;8.98;;;5.50;99.90;;;;;;4999206;28;20049;-70
2022/04/04 04:40:34;;;;;;;15.35;9.43;;;5.50;99.90;;;;;;5017114;28;20045;-69
2022/04/04 04:43:01;;;;;;;18.60;10.20;;;5.50;99.90;;;;;;4999763;28;20153;-69
2022/04/04 04:45:27;;;;;;;11.93;7.57;;;5.50;99.90;;;;;;5015765;28;20053;-70
2022/04/04 04:47:52;;;;;;;16.63;8.60;;;5.50;99.90;;;;;;4998562;28;20068;-71
2022/04/04 04:50:20;;;;;;;16.50;8.55;;;5.50;99.90;;;;;;5016612;28;20054;-70
2022/04/04 04:52:47;;;;;;;14.25;9.30;;;5.60;99.90;;;;;;5015997;28;20523;-70
2022/04/04 04:55:14;;;;;;;14.75;8.63;;;5.50;99.90;;;;;;5017931;28;20116;-71
2022/04/04 04:57:40;;;;;;;13.82;10.27;;;5.50;99.90;;;;;;5020242;28;20057;-71
2022/04/04 05:00:10;;;;;;;12.70;9.75;;;5.50;99.90;;;;;;5019282;28;20387;-70
2022/04/04 05:02:36;;;;;;;10.75;7.70;;;5.50;99.90;;;;;;5001865;28;20076;-70
2022/04/04 05:05:04;;;;;;;11.45;7.95;;;5.50;99.90;;;;;;5019425;28;20710;-71
2022/04/04 05:07:30;;;;;;;11.57;8.65;;;5.50;99.90;;;;;;5019319;28;20054;-71
2022/04/04 05:09:55;;;;;;;16.52;8.48;;;5.50;99.90;;;;;;5001628;28;20587;-71
2022/04/04 05:12:21;;;;;;;9.38;6.63;;;5.50;99.90;;;;;;5019736;28;20058;-70
2022/04/04 05:14:48;;;;;;;15.13;9.15;;;5.40;99.90;;;;;;5002322;28;20042;-71
2022/04/04 05:17:14;;;;;;;9.02;6.32;;;5.40;99.90;;;;;;5017768;28;20056;-75
2022/04/04 05:19:39;;;;;;;19.98;8.73;;;5.40;99.90;;;;;;5017139;28;20057;-74
2022/04/04 05:22:05;;;;;;;12.30;9.05;;;5.30;99.90;;;;;;4999869;28;20871;-72
2022/04/04 05:24:31;;;;;;;11.98;8.38;;;5.40;99.90;;;;;;5017432;28;20037;-71
2022/04/04 05:26:57;;;;;;;11.05;8.98;;;5.30;99.90;;;;;;5017137;28;20771;-71
2022/04/04 05:29:26;;;;;;;17.52;7.93;;;5.30;99.90;;;;;;5017077;28;20131;-73
2022/04/04 05:31:55;;;;;;;16.63;9.48;;;5.30;99.90;;;;;;5016866;28;20487;-72
2022/04/04 05:34:25;;;;;;;15.70;9.80;;;5.30;99.90;;;;;;5016706;28;20090;-72
2022/04/04 05:36:50;;;;;;;14.30;9.00;;;5.30;99.90;;;;;;5016901;28;20044;-72
2022/04/04 05:39:16;;;;;;;13.98;8.98;;;5.30;99.90;;;;;;5005234;28;20049;-72
2022/04/04 05:41:42;;;;;;;14.43;7.93;;;5.20;99.90;;;;;;5014433;28;20045;-72
2022/04/04 05:44:07;;;;;;;11.38;7.60;;;5.30;99.90;;;;;;5015106;28;20080;-72
2022/04/04 05:46:34;;;;;;;13.73;10.27;;;5.30;99.90;;;;;;5014304;28;20076;-72
2022/04/04 05:49:00;;;;;;;14.35;9.38;;;5.30;99.90;;;;;;5014622;28;20049;-72
2022/04/04 05:51:29;;;;;;;11.75;8.52;;;5.30;99.90;;;;;;5015579;28;20048;-71
2022/04/04 05:53:55;;;;;;;16.58;9.05;;;5.10;99.90;;;;;;5014964;28;20248;-72
2022/04/04 05:56:21;;;;;;;14.80;10.13;;;6.30;99.90;;;;;;5016123;28;20611;-71
2022/04/04 05:58:48;;;;;;;13.50;9.27;;;5.40;99.90;;;;;;5015122;28;20056;-71
2022/04/04 06:01:14;;;;;;;12.48;8.82;;;5.30;99.90;;;;;;5014245;28;20521;-71
2022/04/04 06:03:40;;;;;;;13.35;8.13;;;5.30;99.90;;;;;;4996517;28;20405;-71
2022/04/04 06:06:05;;;;;;;17.73;9.52;;;5.30;99.90;;;;;;5013435;28;20042;-70
2022/04/04 06:08:31;;;;;;;19.55;11.48;;;5.30;99.90;;;;;;5013319;28;20033;-70
2022/04/04 06:10:57;;;;;;;13.13;8.40;;;5.30;99.90;;;;;;5013932;28;20156;-69
2022/04/04 06:13:23;;;;;;;13.02;8.70;;;5.30;99.90;;;;;;5015810;28;20133;-70
2022/04/04 06:15:48;;;;;;;11.30;8.65;;;5.20;99.90;;;;;;5013801;28;21000;-70
2022/04/04 06:18:15;;;;;;;13.30;9.45;;;5.20;99.90;;;;;;5015759;28;20057;-70
2022/04/04 06:20:42;;;;;;;14.70;9.38;;;5.20;99.90;;;;;;5015788;28;20103;-70
2022/04/04 06:23:08;;;;;;;14.63;10.98;;;5.20;99.90;;;;;;5015570;28;20492;-70
2022/04/04 06:25:34;;;;;;;18.73;10.95;;;5.20;99.90;;;;;;5013854;28;20771;-70
2022/04/04 06:27:59;;;;;;;18.17;11.75;;;5.20;99.90;;;;;;5017158;28;20041;-70
2022/04/04 06:30:26;;;;;;;13.85;9.88;;;5.20;99.90;;;;;;5023825;28;20821;-70
2022/04/04 06:32:52;;;;;;;15.07;10.93;;;5.10;99.90;;;;;;5015339;28;20053;-71
2022/04/04 06:35:18;;;;;;;17.38;10.43;;;5.20;99.90;;;;;;5015511;28;20044;-70
2022/04/04 06:37:45;;;;;;;16.20;10.30;;;5.20;99.90;;;;;;5015303;28;20049;-71
2022/04/04 06:40:12;;;;;;;14.25;11.15;;;5.20;99.90;;;;;;5013662;28;20038;-71
2022/04/04 06:42:43;;;;;;;21.33;12.52;;;5.20;99.90;;;;;;5014454;28;20122;-71
2022/04/04 06:45:10;;;;;;;14.05;10.25;;;5.20;99.90;;;;;;5014404;28;20042;-71
2022/04/04 06:47:37;;;;;;;14.82;9.65;;;5.20;99.90;;;;;;4995664;28;20088;-71
2022/04/04 06:50:04;;;;;;;15.10;10.10;;;5.20;99.90;;;;;;4994789;28;20088;-71
2022/04/04 06:52:30;;;;;;;12.65;9.60;;;5.80;99.90;;;;;;5010027;28;20045;-71
2022/04/04 06:54:56;;;;;;;14.13;10.65;;;5.20;99.90;;;;;;5011536;28;20038;-71
2022/04/04 06:57:23;;;;;;;12.93;8.70;;;5.20;99.90;;;;;;5011926;28;20064;-71
2022/04/04 06:59:49;;;;;;;14.70;10.10;;;5.20;99.90;;;;;;5009122;28;20123;-70
2022/04/04 07:02:14;;;;;;;13.00;8.50;;;5.20;99.90;;;;;;5012431;28;20846;-71
2022/04/04 07:04:43;;;;;;;12.25;8.93;;;5.20;99.90;;;;;;5011626;28;20064;-71
2022/04/04 07:07:09;;;;;;;12.07;8.20;;;5.10;99.90;;;;;;4994475;28;20096;-70
2022/04/04 07:09:34;;;;;;;11.13;7.25;;;5.20;99.90;;;;;;5013985;28;20791;-71
2022/04/04 07:12:01;;;;;;;13.52;8.52;;;5.20;99.90;;;;;;5013076;28;20085;-70
2022/04/04 07:14:28;;;;;;;13.77;10.40;;;5.20;99.90;;;;;;5011297;28;20053;-70
2022/04/04 07:16:54;;;;;;;11.52;9.80;;;5.20;99.90;;;;;;4350585;28;10000496;-70
2022/04/04 07:19:22;;;;;;;15.45;9.35;;;5.20;99.90;;;;;;5015199;28;20274;-69
2022/04/04 07:21:52;;;;;;;11.02;9.48;;;5.10;99.90;;;;;;5013550;28;20049;-70
2022/04/04 07:24:21;;;;;;;16.40;7.85;;;5.10;99.90;;;;;;5011404;28;20103;-71
2022/04/04 07:26:48;;;;;;;13.82;9.05;;;5.10;99.90;;;;;;5013012;28;20134;-70
2022/04/04 07:29:14;;;;;;;12.48;8.68;;;5.20;99.90;;;;;;5013907;28;20037;-69
2022/04/04 07:31:41;;;;;;;14.57;9.25;;;5.20;99.90;;;;;;5013425;28;20049;-69
2022/04/04 07:34:07;;;;;;;10.88;8.10;;;5.20;99.90;;;;;;5012833;28;20045;-69
2022/04/04 07:36:33;;;;;;;8.95;7.53;;;5.20;99.90;;;;;;5012817;28;20567;-69
2022/04/04 07:38:59;;;;;;;14.27;9.27;;;5.30;99.90;;;;;;4995373;28;20060;-68
2022/04/04 07:41:25;;;;;;;17.33;9.00;;;5.30;99.90;;;;;;5012570;28;20132;-69
2022/04/04 07:43:50;;;;;;;14.80;10.00;;;5.30;99.90;;;;;;5012551;28;20801;-69
2022/04/04 07:46:16;;;;;;;12.98;8.95;;;5.30;99.90;;;;;;5012788;28;20077;-69
2022/04/04 07:48:42;;;;;;;14.25;9.02;;;5.30;99.90;;;;;;5012950;28;20041;-69
2022/04/04 07:51:08;;;;;;;13.73;10.02;;;5.40;99.90;;;;;;5013499;28;20041;-70
2022/04/04 07:53:34;;;;;;;12.50;8.57;;;5.40;99.90;;;;;;5012043;28;20059;-69
2022/04/04 07:56:00;;;;;;;13.05;8.90;;;5.40;99.90;;;;;;5011260;28;20651;-69
2022/04/04 07:58:26;;;;;;;19.60;9.88;;;5.40;99.90;;;;;;5013391;28;20042;-69
2022/04/04 08:00:52;;;;;;;13.15;9.30;;;5.50;99.90;;;;;;5007537;28;20123;-69
2022/04/04 08:03:19;;;;;;;12.25;7.60;;;5.50;99.90;;;;;;5009269;28;20049;-69
2022/04/04 08:05:45;;;;;;;11.18;8.73;;;5.50;99.90;;;;;;5008301;28;20140;-69
2022/04/04 08:08:10;;;;;;;9.52;7.78;;;5.50;99.90;;;;;;5008952;28;20385;-70
2022/04/04 08:10:36;;;;;;;6.57;5.82;;;5.50;99.90;;;;;;5008236;28;20061;-69
2022/04/04 08:13:02;;;;;;;7.43;5.45;;;5.60;99.90;;;;;;4989130;28;20064;-69
2022/04/04 08:15:28;;;;;;;9.75;6.47;;;5.60;99.90;;;;;;5004219;28;20247;-69
2022/04/04 08:17:53;;;;;;;7.53;6.28;;;5.60;99.90;;;;;;4658036;28;10000011;-69
2022/04/04 08:20:19;;;;;;;7.00;4.78;;;5.60;99.90;;;;;;5005617;28;20053;-68
2022/04/04 08:22:45;;;;;;;11.60;5.55;;;6.70;99.90;;;;;;4990279;28;20081;-68
2022/04/04 08:25:12;;;;;;;8.38;5.43;;;5.70;99.90;;;;;;5005775;28;20749;-69
2022/04/04 08:27:38;;;;;;;7.65;5.38;;;5.80;99.90;;;;;;4987775;28;20320;-68
2022/04/04 08:30:05;;;;;;;9.27;5.78;;;5.70;99.90;;;;;;4988532;28;20090;-69
2022/04/04 08:32:33;;;;;;;7.20;5.28;;;5.80;99.90;;;;;;4985361;28;20051;-68
2022/04/04 08:34:59;;;;;;;6.28;5.03;;;5.80;99.90;;;;;;5010123;28;20072;-68
2022/04/04 08:37:24;;;;;;;7.25;4.80;;;5.20;99.90;;;;;;5008177;28;20184;-68
2022/04/04 08:39:50;;;;;;;7.15;5.50;;;5.80;99.90;;;;;;5012075;28;20046;-69
2022/04/04 08:42:21;;;;;;;5.32;4.40;;;5.90;99.90;;;;;;5015898;28;20049;-69
2022/04/04 08:44:48;;;;;;;7.40;4.82;;;5.90;99.90;;;;;;5012198;28;20049;-69
2022/04/04 08:47:18;;;;;;;6.10;4.22;;;6.30;99.90;;;;;;4994253;28;20052;-70
2022/04/04 08:49:43;;;;;;;7.72;4.00;;;6.00;99.90;;;;;;5012138;28;20136;-70
2022/04/04 08:52:09;;;;;;;6.30;3.13;;;6.00;99.90;;;;;;4995022;28;20052;-70
2022/04/04 08:54:34;;;;;;;4.55;3.75;;;6.10;99.90;;;;;;5012831;28;20068;-70
2022/04/04 08:57:00;;;;;;;7.07;3.58;;;6.10;99.90;;;;;;5013525;28;20049;-70
2022/04/04 08:59:26;;;;;;;6.07;3.33;;;6.10;99.90;;;;;;5014613;28;20187;-69
2022/04/04 09:01:52;;;;;;;3.83;2.92;;;6.20;99.90;;;;;;5014753;28;20045;-70
2022/04/04 09:04:18;;;;;;;4.35;2.83;;;6.20;99.90;;;;;;5012455;28;20050;-69
2022/04/04 09:06:55;;;;;;;3.40;2.85;;;6.30;99.90;;;;;;5013275;28;20119;-69
2022/04/04 09:09:45;;;;;;;5.22;3.13;;;6.20;99.90;;;;;;5011042;28;20089;-69
2022/04/04 09:12:15;;;;;;;3.00;2.50;;;6.30;99.90;;;;;;5011102;28;20068;-73
2022/04/04 09:14:51;;;;;;;5.15;2.58;;;6.30;99.90;;;;;;5011785;28;20092;-73
2022/04/04 09:17:19;;;;;;;3.08;2.88;;;6.30;99.90;;;;;;4994888;28;20050;-73
2022/04/04 09:19:45;;;;;;;6.00;3.05;;;6.30;99.90;;;;;;5012638;28;20692;-72
2022/04/04 09:22:12;;;;;;;3.30;3.00;;;6.30;99.90;;;;;;5013317;28;20045;-72
2022/04/04 09:24:43;;;;;;;7.00;3.33;;;6.30;99.90;;;;;;5014701;28;20085;-71
2022/04/04 09:27:11;;;;;;;3.15;2.50;;;6.30;99.90;;;;;;5013831;28;21050;-71
2022/04/04 09:29:41;;;;;;;4.22;2.30;;;6.40;99.90;;;;;;5017394;28;20045;-71
2022/04/04 09:32:10;;;;;;;4.35;2.30;;;6.40;99.90;;;;;;5006643;28;20190;-71
2022/04/04 09:35:04;;;;;;;2.03;1.90;;;6.40;99.90;;;;;;4999292;28;20041;-70
2022/04/04 09:37:33;;;;;;;2.20;2.05;;;6.40;99.90;;;;;;5013772;28;20045;-70
2022/04/04 09:40:08;;;;;;;3.58;2.42;;;6.40;99.90;;;;;;5016868;28;20077;-70
2022/04/04 09:42:34;;;;;;;4.10;2.33;;;6.40;99.90;;;;;;5014815;28;20120;-71
2022/04/04 09:45:05;;;;;;;4.15;2.35;;;6.50;99.90;;;;;;4994919;28;20060;-70
2022/04/04 09:47:50;;;;;;;2.85;2.45;;;6.40;99.90;;;;;;5013415;28;20049;-71
2022/04/04 09:50:35;;;;;;;2.63;2.25;;;6.50;99.90;;;;;;4994569;28;20114;-69
2022/04/04 09:53:03;;;;;;;2.17;1.90;;;6.50;99.90;;;;;;5014413;28;20057;-71
2022/04/04 09:55:38;;;;;;;3.75;2.35;;;7.30;99.90;;;;;;4994485;28;20360;-71
2022/04/04 09:58:09;;;;;;;4.40;3.25;;;6.50;99.90;;;;;;5010347;28;20045;-70
2022/04/04 10:00:36;;;;;;;7.43;2.55;;;6.60;99.90;;;;;;4995183;28;20056;-70
2022/04/04 10:03:04;;;;;;;6.38;2.90;;;6.60;99.90;;;;;;4994842;28;20052;-70
2022/04/04 10:05:30;;;;;;;2.35;2.00;;;6.70;99.90;;;;;;5012357;28;20041;-71
2022/04/04 10:07:57;;;;;;;3.08;1.90;;;6.70;99.90;;;;;;4994470;28;20068;-69
2022/04/04 10:10:24;;;;;;;3.75;2.50;;;6.70;99.90;;;;;;5013483;28;20063;-69
2022/04/04 10:12:51;;;;;;;5.35;2.97;;;6.70;99.90;;;;;;4996224;28;20049;-70
2022/04/04 10:15:18;;;;;;;2.53;1.92;;;6.70;99.90;;;;;;4997251;28;20635;-70
2022/04/04 10:17:44;;;;;;;2.83;2.47;;;6.70;99.90;;;;;;5015177;28;20050;-70
2022/04/04 10:20:11;;;;;;;2.78;2.40;;;6.70;99.90;;;;;;5015329;28;20156;-72
2022/04/04 10:22:38;;;;;;;3.25;2.95;;;6.70;99.90;;;;;;5014173;28;20905;-72
2022/04/04 10:25:07;;;;;;;3.30;2.30;;;6.80;99.90;;;;;;5013345;28;20080;-72
2022/04/04 10:27:36;;;;;;;2.33;1.90;;;6.80;99.90;;;;;;5012049;28;20045;-71
2022/04/04 10:30:07;;;;;;;2.42;2.22;;;6.80;99.90;;;;;;5013127;28;20073;-71
2022/04/04 10:32:34;;;;;;;3.65;2.22;;;6.70;99.90;;;;;;4993790;28;20119;-73
2022/04/04 10:35:12;;;;;;;2.97;2.33;;;6.70;99.90;;;;;;5012506;28;20044;-72
2022/04/04 10:37:44;;;;;;;3.17;2.40;;;6.80;99.90;;;;;;4991702;28;20041;-71
2022/04/04 10:40:28;;;;;;;2.70;2.38;;;6.80;99.90;;;;;;5013068;28;20412;-72
2022/04/04 10:43:01;;;;;;;;;;;6.90;99.90;;;;;;5012177;28;20084;-71
2022/04/04 10:45:29;;;;;;;2.70;2.30;;;6.90;99.90;;;;;;5010644;28;20023;-72
2022/04/04 10:48:04;;;;;;;2.17;1.70;;;6.90;99.90;;;;;;5012609;28;20049;-71
2022/04/04 10:50:30;;;;;;;2.45;2.10;;;6.90;99.90;;;;;;4993444;28;20144;-71
2022/04/04 10:52:59;;;;;;;2.80;1.80;;;6.90;99.90;;;;;;5011215;28;20049;-71
2022/04/04 10:55:36;;;;;;;4.57;2.22;;;6.90;99.90;;;;;;5009792;28;20710;-70
2022/04/04 10:58:15;;;;;;;4.90;2.72;;;7.00;99.90;;;;;;5012174;28;20119;-72
2022/04/04 11:01:09;;;;;;;2.80;2.20;;;7.00;99.90;;;;;;4997201;28;20092;-71
2022/04/04 11:03:52;;;;;;;5.03;2.67;;;7.00;99.90;;;;;;4995553;28;20404;-70
2022/04/04 11:09:15;;;;;;;2.90;1.85;;;7.10;99.90;;;;;;5014650;28;20065;-70
2022/04/04 11:11:57;;;;;;;3.55;2.17;;;7.10;99.90;;;;;;5014133;28;20061;-70
2022/04/04 11:14:43;;;;;;;2.95;1.85;;;8.10;99.90;;;;;;5014125;28;20049;-69
2022/04/04 11:17:09;;;;;;;3.35;2.22;;;7.00;99.90;;;;;;4996111;28;20894;-70
2022/04/04 11:19:55;;;;;;;1.77;1.55;;;7.20;99.90;;;;;;4995190;28;20050;-69
2022/04/04 11:22:27;;;;;;;1.90;1.80;;;7.20;99.90;;;;;;5011804;28;20140;-69
2022/04/04 11:24:56;;;;;;;2.25;1.85;;;7.30;99.90;;;;;;5011221;28;20065;-68
2022/04/04 11:27:25;;;;;;;2.10;1.90;;;7.30;99.90;;;;;;5010965;28;20045;-68
2022/04/04 11:29:51;;;;;;;2.30;2.10;;;7.30;99.90;;;;;;5012077;28;20041;-68
2022/04/04 11:32:31;;;;;;;1.50;1.40;;;7.30;99.90;;;;;;4992046;28;20049;-68
2022/04/04 11:35:10;;;;;;;2.35;1.40;;;7.40;99.90;;;;;;5010880;28;20754;-69
2022/04/04 11:37:48;;;;;;;5.25;1.83;;;7.50;99.90;;;;;;5010227;28;20052;-69
2022/04/04 11:40:18;;;;;;;1.50;1.23;;;7.60;99.90;;;;;;5010512;28;20085;-69
2022/04/04 11:42:51;;;;;;;1.92;1.20;;;7.50;99.90;;;;;;5011108;28;20060;-68
2022/04/04 11:45:19;;;;;;;1.75;1.65;;;7.60;99.90;;;;;;5011266;28;20045;-68
2022/04/04 11:48:10;;;;;;;3.47;1.20;;;7.60;99.90;;;;;;5010347;28;20045;-68
2022/04/04 11:50:37;;;;;;;2.42;1.88;;;7.60;99.90;;;;;;5008969;28;20854;-68
2022/04/04 11:53:12;;;;;;;1.50;1.20;;;7.70;99.90;;;;;;5010944;28;20049;-68
2022/04/04 11:55:41;;;;;;;1.42;1.33;;;7.70;99.90;;;;;;5011364;28;20041;-68
2022/04/04 11:58:10;;;;;;;1.30;1.20;;;7.70;99.90;;;;;;4993838;28;20213;-68
2022/04/04 12:00:38;;;;;;;1.33;1.23;;;7.70;99.90;;;;;;5009374;28;20042;-68
2022/04/04 12:03:11;;;;;;;2.30;1.48;;;7.80;99.90;;;;;;5012380;28;20053;-69
2022/04/04 12:05:46;;;;;;;1.50;0.98;;;7.80;99.90;;;;;;5014247;28;20131;-69
2022/04/04 12:08:12;;;;;;;1.65;1.20;;;7.80;99.90;;;;;;5015062;28;20056;-69
2022/04/04 12:10:40;;;;;;;1.10;1.10;;;7.80;99.90;;;;;;5015809;28;20058;-69
2022/04/04 12:13:06;;;;;;;0.93;0.80;;;7.90;99.90;;;;;;5015736;28;20045;-68
2022/04/04 12:15:34;;;;;;;1.30;1.20;;;7.90;99.90;;;;;;5015093;28;20155;-68
2022/04/04 12:18:03;;;;;;;2.40;1.00;;;7.80;99.90;;;;;;5015615;28;20049;-68
2022/04/04 12:20:41;;;;;;;1.48;1.15;;;7.90;99.90;;;;;;5014391;28;20048;-68
2022/04/04 12:25:58;;;;;;;1.23;0.80;;;8.00;99.90;;;;;;5015264;28;20045;-69
2022/04/04 12:28:35;;;;;;;1.38;0.85;;;8.00;99.90;;;;;;4999097;28;20132;-69
2022/04/04 12:31:21;;;;;;;0.90;0.90;;;8.00;99.90;;;;;;4995779;28;20157;-69
2022/04/04 12:34:04;;;;;;;1.08;1.00;;;8.00;99.90;;;;;;5014342;28;20124;-69
2022/04/04 12:36:31;;;;;;;0.68;0.68;;;8.00;99.90;;;;;;5014968;28;20041;-69
2022/04/04 12:39:00;;;;;;;0.70;0.70;;;8.00;99.90;;;;;;5015452;28;20050;-69
2022/04/04 12:41:27;;;;;;;1.10;0.60;;;8.10;99.90;;;;;;4998455;28;20080;-69
2022/04/04 12:44:02;;;;;;;1.85;0.93;;;8.20;99.90;;;;;;5019533;28;20124;-69
2022/04/04 12:46:32;;;;;;;0.82;0.75;;;8.20;99.90;;;;;;5002476;28;20050;-71
2022/04/04 12:49:19;;;;;;;0.60;0.60;;;8.20;99.90;;;;;;5001830;28;20053;-72
2022/04/04 12:51:58;;;;;;;0.65;0.65;;;8.20;99.90;;;;;;5015540;28;20096;-71
2022/04/04 12:54:37;;;;;;;0.70;0.70;;;8.30;99.90;;;;;;4997849;28;20049;-70
2022/04/04 12:57:08;;;;;;;0.70;0.70;;;8.40;99.90;;;;;;4997272;28;20056;-70
2022/04/04 12:59:53;;;;;;;0.65;0.65;;;8.30;99.90;;;;;;5015465;28;20092;-71
2022/04/04 13:02:18;;;;;;;1.45;0.70;;;8.30;99.90;;;;;;5014862;28;20083;-71
2022/04/04 13:04:44;;;;;;;0.63;0.63;;;8.40;99.90;;;;;;5015291;28;20046;-73
2022/04/04 13:07:20;;;;;;;0.70;0.70;;;8.40;99.90;;;;;;5017160;28;20041;-72